sensor_id;sensor_type;location;lat;lon;timestamp;pressure;altitude;pressure_sealevel;temperature;humidity
9439;BME280;5176;42.622;25.386;2023-07-30T00:00:18;97023.69;;;22.56;55.35
9439;BME280;5176;42.622;25.386;2023-07-30T00:02:46;97018.34;;;22.56;55.17
9439;BME280;5176;42.622;25.386;2023-07-30T00:05:15;97023.03;;;22.54;55.25
9439;BME280;5176;42.622;25.386;2023-07-30T00:07:42;97013.69;;;22.50;55.13
9439;BME280;5176;42.622;25.386;2023-07-30T00:10:10;97024.06;;;22.45;55.49
9439;BME280;5176;42.622;25.386;2023-07-30T00:12:37;97018.63;;;22.39;54.82
9439;BME280;5176;42.622;25.386;2023-07-30T00:15:07;97009.19;;;22.28;55.36
9439;BME280;5176;42.622;25.386;2023-07-30T00:17:34;97011.72;;;22.21;55.94
9439;BME280;5176;42.622;25.386;2023-07-30T00:20:02;97008.75;;;22.16;56.18
9439;BME280;5176;42.622;25.386;2023-07-30T00:22:32;97009.94;;;22.06;56.38
9439;BME280;5176;42.622;25.386;2023-07-30T00:24:59;97018.63;;;21.99;57.24
9439;BME280;5176;42.622;25.386;2023-07-30T00:27:26;97012.84;;;21.96;57.37
9439;BME280;5176;42.622;25.386;2023-07-30T00:29:54;97005.34;;;21.91;57.91
9439;BME280;5176;42.622;25.386;2023-07-30T00:32:21;97015.56;;;21.88;58.02
9439;BME280;5176;42.622;25.386;2023-07-30T00:34:49;97017.91;;;21.83;58.43
9439;BME280;5176;42.622;25.386;2023-07-30T00:37:16;97019.91;;;21.81;59.04
9439;BME280;5176;42.622;25.386;2023-07-30T00:39:45;97020.91;;;21.80;60.53
9439;BME280;5176;42.622;25.386;2023-07-30T00:42:12;97022.78;;;21.71;61.24
9439;BME280;5176;42.622;25.386;2023-07-30T00:44:39;97017.31;;;21.64;62.06
9439;BME280;5176;42.622;25.386;2023-07-30T00:47:06;97014.66;;;21.56;62.92
9439;BME280;5176;42.622;25.386;2023-07-30T00:49:33;97015.53;;;21.48;64.38
9439;BME280;5176;42.622;25.386;2023-07-30T00:52:01;97012.38;;;21.37;65.64
9439;BME280;5176;42.622;25.386;2023-07-30T00:54:29;97013.22;;;21.37;66.18
9439;BME280;5176;42.622;25.386;2023-07-30T00:56:58;97004.91;;;21.40;66.19
9439;BME280;5176;42.622;25.386;2023-07-30T00:59:25;97012.56;;;21.35;65.55
9439;BME280;5176;42.622;25.386;2023-07-30T01:01:53;97005.25;;;21.29;66.30
9439;BME280;5176;42.622;25.386;2023-07-30T01:04:21;97014.41;;;21.27;65.40
9439;BME280;5176;42.622;25.386;2023-07-30T01:06:48;97012.91;;;21.16;66.04
9439;BME280;5176;42.622;25.386;2023-07-30T01:09:16;97003.78;;;21.02;66.37
9439;BME280;5176;42.622;25.386;2023-07-30T01:11:43;97006.44;;;20.94;66.88
9439;BME280;5176;42.622;25.386;2023-07-30T01:14:13;97010.44;;;20.90;67.47
9439;BME280;5176;42.622;25.386;2023-07-30T01:16:41;97011.75;;;20.86;67.83
9439;BME280;5176;42.622;25.386;2023-07-30T01:19:09;97003.97;;;20.76;67.74
9439;BME280;5176;42.622;25.386;2023-07-30T01:21:38;97004.97;;;20.75;68.59
9439;BME280;5176;42.622;25.386;2023-07-30T01:24:06;97003.28;;;20.66;68.70
9439;BME280;5176;42.622;25.386;2023-07-30T01:26:37;97005.13;;;20.65;69.49
9439;BME280;5176;42.622;25.386;2023-07-30T01:29:10;97007.63;;;20.67;70.04
9439;BME280;5176;42.622;25.386;2023-07-30T01:31:39;97009.31;;;20.60;70.83
9439;BME280;5176;42.622;25.386;2023-07-30T01:34:08;97002.13;;;20.52;72.09
9439;BME280;5176;42.622;25.386;2023-07-30T01:36:38;96998.31;;;20.47;72.86
9439;BME280;5176;42.622;25.386;2023-07-30T01:39:08;97004.47;;;20.47;72.90
9439;BME280;5176;42.622;25.386;2023-07-30T01:41:36;97001.97;;;20.54;71.92
9439;BME280;5176;42.622;25.386;2023-07-30T01:44:04;97007.56;;;20.42;72.22
9439;BME280;5176;42.622;25.386;2023-07-30T01:46:31;96995.09;;;20.43;71.41
9439;BME280;5176;42.622;25.386;2023-07-30T01:48:58;97006.28;;;20.47;71.07
9439;BME280;5176;42.622;25.386;2023-07-30T01:51:26;97000.78;;;20.48;69.94
9439;BME280;5176;42.622;25.386;2023-07-30T01:53:55;97004.75;;;20.44;69.10
9439;BME280;5176;42.622;25.386;2023-07-30T01:56:22;96998.44;;;20.45;68.64
9439;BME280;5176;42.622;25.386;2023-07-30T01:58:49;97001.44;;;20.42;69.16
9439;BME280;5176;42.622;25.386;2023-07-30T02:01:17;96994.28;;;20.42;69.24
9439;BME280;5176;42.622;25.386;2023-07-30T02:03:44;96999.41;;;20.44;69.01
9439;BME280;5176;42.622;25.386;2023-07-30T02:06:11;97006.75;;;20.42;69.19
9439;BME280;5176;42.622;25.386;2023-07-30T02:08:39;97005.91;;;20.33;69.80
9439;BME280;5176;42.622;25.386;2023-07-30T02:11:08;96998.91;;;20.24;70.70
9439;BME280;5176;42.622;25.386;2023-07-30T02:13:35;97002.91;;;20.20;70.98
9439;BME280;5176;42.622;25.386;2023-07-30T02:16:02;96998.41;;;20.21;70.79
9439;BME280;5176;42.622;25.386;2023-07-30T02:18:30;97008.69;;;20.16;70.54
9439;BME280;5176;42.622;25.386;2023-07-30T02:20:57;97000.19;;;20.12;70.87
9439;BME280;5176;42.622;25.386;2023-07-30T02:23:24;97008.88;;;20.14;70.74
9439;BME280;5176;42.622;25.386;2023-07-30T02:25:51;96999.41;;;20.20;70.18
9439;BME280;5176;42.622;25.386;2023-07-30T02:28:20;97003.56;;;20.14;68.76
9439;BME280;5176;42.622;25.386;2023-07-30T02:30:47;97009.38;;;20.18;69.09
9439;BME280;5176;42.622;25.386;2023-07-30T02:33:15;97004.22;;;20.16;69.12
9439;BME280;5176;42.622;25.386;2023-07-30T02:35:43;97008.88;;;20.22;68.80
9439;BME280;5176;42.622;25.386;2023-07-30T02:38:10;97008.53;;;20.25;68.36
9439;BME280;5176;42.622;25.386;2023-07-30T02:40:37;97003.22;;;20.25;67.97
9439;BME280;5176;42.622;25.386;2023-07-30T02:43:05;97006.72;;;20.26;68.56
9439;BME280;5176;42.622;25.386;2023-07-30T02:45:33;97016.53;;;20.25;68.42
9439;BME280;5176;42.622;25.386;2023-07-30T02:48:00;97013.88;;;20.25;68.59
9439;BME280;5176;42.622;25.386;2023-07-30T02:50:28;97021.03;;;20.25;68.62
9439;BME280;5176;42.622;25.386;2023-07-30T02:52:55;97018.50;;;20.15;68.60
9439;BME280;5176;42.622;25.386;2023-07-30T02:55:23;97017.50;;;20.08;69.10
9439;BME280;5176;42.622;25.386;2023-07-30T02:57:50;97017.16;;;20.03;69.56
9439;BME280;5176;42.622;25.386;2023-07-30T03:00:18;97017.31;;;19.93;69.60
9439;BME280;5176;42.622;25.386;2023-07-30T03:02:46;97021.25;;;19.89;70.03
9439;BME280;5176;42.622;25.386;2023-07-30T03:05:13;97021.72;;;19.76;70.48
9439;BME280;5176;42.622;25.386;2023-07-30T03:07:41;97023.34;;;19.69;71.30
9439;BME280;5176;42.622;25.386;2023-07-30T03:10:08;97020.66;;;19.61;71.40
9439;BME280;5176;42.622;25.386;2023-07-30T03:12:36;97022.78;;;19.57;71.94
9439;BME280;5176;42.622;25.386;2023-07-30T03:15:04;97026.41;;;19.56;71.80
9439;BME280;5176;42.622;25.386;2023-07-30T03:17:31;97028.25;;;19.56;72.11
9439;BME280;5176;42.622;25.386;2023-07-30T03:20:00;97032.91;;;19.54;72.19
9439;BME280;5176;42.622;25.386;2023-07-30T03:22:27;97025.28;;;19.59;72.40
9439;BME280;5176;42.622;25.386;2023-07-30T03:24:55;97030.38;;;19.52;72.56
9439;BME280;5176;42.622;25.386;2023-07-30T03:27:22;97029.25;;;19.55;71.82
9439;BME280;5176;42.622;25.386;2023-07-30T03:29:49;97024.75;;;19.55;71.92
9439;BME280;5176;42.622;25.386;2023-07-30T03:32:16;97028.81;;;19.59;71.80
9439;BME280;5176;42.622;25.386;2023-07-30T03:34:44;97025.28;;;19.59;71.94
9439;BME280;5176;42.622;25.386;2023-07-30T03:37:12;97027.81;;;19.61;72.20
9439;BME280;5176;42.622;25.386;2023-07-30T03:39:40;97023.50;;;19.59;72.38
9439;BME280;5176;42.622;25.386;2023-07-30T03:42:07;97030.91;;;19.56;72.49
9439;BME280;5176;42.622;25.386;2023-07-30T03:44:35;97025.06;;;19.52;73.31
9439;BME280;5176;42.622;25.386;2023-07-30T03:47:02;97021.09;;;19.56;72.99
9439;BME280;5176;42.622;25.386;2023-07-30T03:49:30;97026.97;;;19.60;73.20
9439;BME280;5176;42.622;25.386;2023-07-30T03:51:57;97026.53;;;19.73;73.77
9439;BME280;5176;42.622;25.386;2023-07-30T03:54:26;97037.38;;;19.79;73.65
9439;BME280;5176;42.622;25.386;2023-07-30T03:56:54;97029.06;;;19.82;73.47
9439;BME280;5176;42.622;25.386;2023-07-30T03:59:21;97030.88;;;19.82;71.86
9439;BME280;5176;42.622;25.386;2023-07-30T04:01:49;97031.53;;;19.76;72.09
9439;BME280;5176;42.622;25.386;2023-07-30T04:04:16;97033.72;;;19.80;72.14
9439;BME280;5176;42.622;25.386;2023-07-30T04:06:44;97036.56;;;19.87;71.39
9439;BME280;5176;42.622;25.386;2023-07-30T04:09:11;97034.56;;;19.89;70.30
9439;BME280;5176;42.622;25.386;2023-07-30T04:11:40;97034.72;;;19.88;70.88
9439;BME280;5176;42.622;25.386;2023-07-30T04:14:07;97038.06;;;19.90;70.88
9439;BME280;5176;42.622;25.386;2023-07-30T04:16:35;97041.53;;;19.90;72.55
9439;BME280;5176;42.622;25.386;2023-07-30T04:19:02;97035.72;;;19.86;72.87
9439;BME280;5176;42.622;25.386;2023-07-30T04:21:29;97033.56;;;19.90;73.40
9439;BME280;5176;42.622;25.386;2023-07-30T04:23:57;97037.59;;;20.02;73.38
9439;BME280;5176;42.622;25.386;2023-07-30T04:26:24;97044.59;;;20.11;73.72
9439;BME280;5176;42.622;25.386;2023-07-30T04:28:53;97043.59;;;20.12;75.73
9439;BME280;5176;42.622;25.386;2023-07-30T04:31:20;97044.13;;;20.16;75.76
9439;BME280;5176;42.622;25.386;2023-07-30T04:33:47;97043.97;;;20.26;75.79
9439;BME280;5176;42.622;25.386;2023-07-30T04:36:14;97050.00;;;20.28;76.26
9439;BME280;5176;42.622;25.386;2023-07-30T04:38:41;97046.97;;;20.31;76.14
9439;BME280;5176;42.622;25.386;2023-07-30T04:41:09;97045.50;;;20.36;75.80
9439;BME280;5176;42.622;25.386;2023-07-30T04:43:36;97044.34;;;20.39;74.72
9439;BME280;5176;42.622;25.386;2023-07-30T04:46:05;97048.00;;;20.38;73.33
9439;BME280;5176;42.622;25.386;2023-07-30T04:48:32;97058.16;;;20.42;72.13
9439;BME280;5176;42.622;25.386;2023-07-30T04:50:59;97056.03;;;20.46;71.90
9439;BME280;5176;42.622;25.386;2023-07-30T04:53:26;97055.22;;;20.54;72.22
9439;BME280;5176;42.622;25.386;2023-07-30T04:55:56;97051.06;;;20.67;71.59
9439;BME280;5176;42.622;25.386;2023-07-30T04:58:24;97044.75;;;20.77;70.62
9439;BME280;5176;42.622;25.386;2023-07-30T05:00:51;97042.41;;;20.90;70.26
9439;BME280;5176;42.622;25.386;2023-07-30T05:03:20;97044.56;;;21.03;70.35
9439;BME280;5176;42.622;25.386;2023-07-30T05:05:47;97043.41;;;21.13;69.31
9439;BME280;5176;42.622;25.386;2023-07-30T05:08:14;97051.03;;;21.25;69.98
9439;BME280;5176;42.622;25.386;2023-07-30T05:10:42;97044.38;;;21.37;69.49
9439;BME280;5176;42.622;25.386;2023-07-30T05:13:09;97045.03;;;21.47;68.27
9439;BME280;5176;42.622;25.386;2023-07-30T05:15:38;97046.50;;;21.58;68.20
9439;BME280;5176;42.622;25.386;2023-07-30T05:18:05;97043.66;;;21.67;67.16
9439;BME280;5176;42.622;25.386;2023-07-30T05:20:34;97052.09;;;21.79;66.96
9439;BME280;5176;42.622;25.386;2023-07-30T05:23:01;97048.22;;;21.90;67.07
9439;BME280;5176;42.622;25.386;2023-07-30T05:25:29;97047.66;;;22.02;66.90
9439;BME280;5176;42.622;25.386;2023-07-30T05:27:56;97039.47;;;22.12;66.24
9439;BME280;5176;42.622;25.386;2023-07-30T05:30:24;97044.41;;;22.23;66.28
9439;BME280;5176;42.622;25.386;2023-07-30T05:32:51;97043.53;;;22.31;65.45
9439;BME280;5176;42.622;25.386;2023-07-30T05:35:18;97034.31;;;22.42;65.49
9439;BME280;5176;42.622;25.386;2023-07-30T05:37:47;97038.22;;;22.54;65.01
9439;BME280;5176;42.622;25.386;2023-07-30T05:40:14;97039.00;;;22.63;64.16
9439;BME280;5176;42.622;25.386;2023-07-30T05:42:41;97045.41;;;22.76;64.38
9439;BME280;5176;42.622;25.386;2023-07-30T05:45:10;97044.84;;;22.89;64.11
9439;BME280;5176;42.622;25.386;2023-07-30T05:47:37;97040.25;;;22.98;63.67
9439;BME280;5176;42.622;25.386;2023-07-30T05:50:06;97046.00;;;23.09;63.83
9439;BME280;5176;42.622;25.386;2023-07-30T05:52:34;97048.25;;;23.21;64.49
9439;BME280;5176;42.622;25.386;2023-07-30T05:55:03;97048.78;;;23.31;63.55
9439;BME280;5176;42.622;25.386;2023-07-30T05:57:30;97051.38;;;23.39;62.13
9439;BME280;5176;42.622;25.386;2023-07-30T05:59:58;97053.41;;;23.52;62.25
9439;BME280;5176;42.622;25.386;2023-07-30T06:02:28;97050.78;;;23.67;61.09
9439;BME280;5176;42.622;25.386;2023-07-30T06:04:55;97039.34;;;23.73;60.53
9439;BME280;5176;42.622;25.386;2023-07-30T06:07:23;97053.09;;;23.84;58.02
9439;BME280;5176;42.622;25.386;2023-07-30T06:09:50;97049.94;;;23.96;58.66
9439;BME280;5176;42.622;25.386;2023-07-30T06:12:19;97042.25;;;24.07;58.56
9439;BME280;5176;42.622;25.386;2023-07-30T06:14:46;97048.34;;;24.16;57.90
9439;BME280;5176;42.622;25.386;2023-07-30T06:17:14;97042.47;;;24.27;57.09
9439;BME280;5176;42.622;25.386;2023-07-30T06:19:41;97043.88;;;24.38;56.59
9439;BME280;5176;42.622;25.386;2023-07-30T06:22:08;97042.81;;;24.54;56.40
9439;BME280;5176;42.622;25.386;2023-07-30T06:24:35;97041.09;;;24.67;56.38
9439;BME280;5176;42.622;25.386;2023-07-30T06:27:03;97034.03;;;24.81;55.20
9439;BME280;5176;42.622;25.386;2023-07-30T06:29:32;97031.47;;;24.94;53.57
9439;BME280;5176;42.622;25.386;2023-07-30T06:31:59;97028.06;;;25.07;53.98
9439;BME280;5176;42.622;25.386;2023-07-30T06:34:27;97032.34;;;25.23;52.96
9439;BME280;5176;42.622;25.386;2023-07-30T06:36:54;97034.03;;;25.31;49.40
9439;BME280;5176;42.622;25.386;2023-07-30T06:39:22;97027.69;;;25.38;50.99
9439;BME280;5176;42.622;25.386;2023-07-30T06:41:49;97021.13;;;25.47;49.94
9439;BME280;5176;42.622;25.386;2023-07-30T06:44:16;97028.66;;;25.59;50.36
9439;BME280;5176;42.622;25.386;2023-07-30T06:46:45;97004.69;;;25.57;48.27
9439;BME280;5176;42.622;25.386;2023-07-30T06:49:12;97023.47;;;25.85;49.31
9439;BME280;5176;42.622;25.386;2023-07-30T06:51:39;97020.22;;;25.96;50.00
9439;BME280;5176;42.622;25.386;2023-07-30T06:54:07;97023.16;;;26.08;49.61
9439;BME280;5176;42.622;25.386;2023-07-30T06:56:34;97020.09;;;26.24;48.66
9439;BME280;5176;42.622;25.386;2023-07-30T06:59:02;97019.31;;;26.37;48.08
9439;BME280;5176;42.622;25.386;2023-07-30T07:01:29;97013.81;;;26.52;46.78
9439;BME280;5176;42.622;25.386;2023-07-30T07:03:58;97013.00;;;26.65;46.95
9439;BME280;5176;42.622;25.386;2023-07-30T07:06:26;97007.22;;;26.74;46.08
9439;BME280;5176;42.622;25.386;2023-07-30T07:08:53;97004.75;;;26.86;46.76
9439;BME280;5176;42.622;25.386;2023-07-30T07:11:20;97006.00;;;26.97;45.01
9439;BME280;5176;42.622;25.386;2023-07-30T07:13:47;97005.38;;;27.08;45.43
9439;BME280;5176;42.622;25.386;2023-07-30T07:16:15;97005.59;;;27.20;44.35
9439;BME280;5176;42.622;25.386;2023-07-30T07:18:42;97005.78;;;27.31;44.08
9439;BME280;5176;42.622;25.386;2023-07-30T07:21:10;97002.25;;;27.44;45.08
9439;BME280;5176;42.622;25.386;2023-07-30T07:23:38;97001.78;;;27.60;45.90
9439;BME280;5176;42.622;25.386;2023-07-30T07:26:05;96993.31;;;27.77;45.09
9439;BME280;5176;42.622;25.386;2023-07-30T07:28:32;97001.94;;;27.92;43.90
9439;BME280;5176;42.622;25.386;2023-07-30T07:31:00;97001.88;;;28.05;42.92
9439;BME280;5176;42.622;25.386;2023-07-30T07:33:27;96991.06;;;28.18;43.68
9439;BME280;5176;42.622;25.386;2023-07-30T07:36:03;96989.75;;;28.34;42.51
9439;BME280;5176;42.622;25.386;2023-07-30T07:38:33;96991.31;;;28.48;42.54
9439;BME280;5176;42.622;25.386;2023-07-30T07:41:00;96988.75;;;28.60;42.65
9439;BME280;5176;42.622;25.386;2023-07-30T07:43:28;96986.56;;;28.75;41.63
9439;BME280;5176;42.622;25.386;2023-07-30T07:45:56;96986.09;;;28.85;41.55
9439;BME280;5176;42.622;25.386;2023-07-30T07:48:23;96980.66;;;28.92;41.00
9439;BME280;5176;42.622;25.386;2023-07-30T07:50:51;96981.00;;;29.02;41.34
9439;BME280;5176;42.622;25.386;2023-07-30T07:53:18;96996.03;;;29.16;40.18
9439;BME280;5176;42.622;25.386;2023-07-30T07:55:46;96980.97;;;29.27;40.12
9439;BME280;5176;42.622;25.386;2023-07-30T07:58:14;96984.59;;;29.39;39.66
9439;BME280;5176;42.622;25.386;2023-07-30T08:00:41;96983.72;;;29.45;38.09
9439;BME280;5176;42.622;25.386;2023-07-30T08:03:08;96975.72;;;29.57;38.37
9439;BME280;5176;42.622;25.386;2023-07-30T08:05:35;96976.00;;;29.67;37.64
9439;BME280;5176;42.622;25.386;2023-07-30T08:08:03;96972.88;;;29.70;36.53
9439;BME280;5176;42.622;25.386;2023-07-30T08:10:30;96978.34;;;29.82;37.42
9439;BME280;5176;42.622;25.386;2023-07-30T08:12:59;96973.59;;;29.96;37.60
9439;BME280;5176;42.622;25.386;2023-07-30T08:15:26;96975.31;;;30.08;39.12
9439;BME280;5176;42.622;25.386;2023-07-30T08:17:53;96961.78;;;30.27;36.66
9439;BME280;5176;42.622;25.386;2023-07-30T08:20:21;96960.19;;;30.37;37.10
9439;BME280;5176;42.622;25.386;2023-07-30T08:22:48;96967.50;;;30.49;37.61
9439;BME280;5176;42.622;25.386;2023-07-30T08:25:16;96970.09;;;30.55;34.71
9439;BME280;5176;42.622;25.386;2023-07-30T08:27:43;96955.91;;;30.60;35.17
9439;BME280;5176;42.622;25.386;2023-07-30T08:30:12;96960.84;;;30.63;36.06
9439;BME280;5176;42.622;25.386;2023-07-30T08:32:40;96961.03;;;30.80;36.39
9439;BME280;5176;42.622;25.386;2023-07-30T08:35:09;96951.03;;;30.92;35.35
9439;BME280;5176;42.622;25.386;2023-07-30T08:37:37;96950.59;;;31.07;35.35
9439;BME280;5176;42.622;25.386;2023-07-30T08:40:05;96946.69;;;31.14;35.02
9439;BME280;5176;42.622;25.386;2023-07-30T08:42:33;96952.22;;;31.19;34.59
9439;BME280;5176;42.622;25.386;2023-07-30T08:45:00;96948.75;;;31.31;35.26
9439;BME280;5176;42.622;25.386;2023-07-30T08:47:29;96932.56;;;31.36;35.01
9439;BME280;5176;42.622;25.386;2023-07-30T08:49:56;96943.84;;;31.56;33.46
9439;BME280;5176;42.622;25.386;2023-07-30T08:52:25;96941.94;;;31.68;33.94
9439;BME280;5176;42.622;25.386;2023-07-30T08:54:53;96942.91;;;31.86;34.38
9439;BME280;5176;42.622;25.386;2023-07-30T08:57:21;96940.16;;;31.97;33.34
9439;BME280;5176;42.622;25.386;2023-07-30T08:59:54;96942.59;;;32.11;34.05
9439;BME280;5176;42.622;25.386;2023-07-30T09:02:34;96937.59;;;32.19;34.34
9439;BME280;5176;42.622;25.386;2023-07-30T09:05:02;96936.94;;;32.29;33.79
9439;BME280;5176;42.622;25.386;2023-07-30T09:07:30;96930.09;;;32.38;32.40
9439;BME280;5176;42.622;25.386;2023-07-30T09:09:58;96928.13;;;32.34;31.98
9439;BME280;5176;42.622;25.386;2023-07-30T09:12:29;96925.97;;;32.36;33.08
9439;BME280;5176;42.622;25.386;2023-07-30T09:14:57;96907.81;;;32.36;32.54
9439;BME280;5176;42.622;25.386;2023-07-30T09:17:25;96915.16;;;32.52;32.40
9439;BME280;5176;42.622;25.386;2023-07-30T09:19:54;96918.28;;;32.61;31.80
9439;BME280;5176;42.622;25.386;2023-07-30T09:22:24;96912.22;;;32.71;32.40
9439;BME280;5176;42.622;25.386;2023-07-30T09:24:53;96908.25;;;32.78;31.76
9439;BME280;5176;42.622;25.386;2023-07-30T09:27:22;96906.13;;;32.80;31.22
9439;BME280;5176;42.622;25.386;2023-07-30T09:29:52;96905.56;;;32.78;32.21
9439;BME280;5176;42.622;25.386;2023-07-30T09:32:19;96875.19;;;32.81;32.23
9439;BME280;5176;42.622;25.386;2023-07-30T09:34:47;96900.94;;;33.13;32.04
9439;BME280;5176;42.622;25.386;2023-07-30T09:37:17;96892.19;;;33.27;31.46
9439;BME280;5176;42.622;25.386;2023-07-30T09:39:47;96884.66;;;33.34;30.04
9439;BME280;5176;42.622;25.386;2023-07-30T09:42:14;96883.59;;;33.35;31.13
9439;BME280;5176;42.622;25.386;2023-07-30T09:44:42;96877.75;;;33.44;31.74
9439;BME280;5176;42.622;25.386;2023-07-30T09:47:10;96886.03;;;33.54;32.02
9439;BME280;5176;42.622;25.386;2023-07-30T09:49:38;96878.25;;;33.63;30.77
9439;BME280;5176;42.622;25.386;2023-07-30T09:52:06;96877.00;;;33.70;30.52
9439;BME280;5176;42.622;25.386;2023-07-30T09:54:36;96876.50;;;33.73;30.48
9439;BME280;5176;42.622;25.386;2023-07-30T09:57:05;96872.41;;;33.71;29.51
9439;BME280;5176;42.622;25.386;2023-07-30T09:59:32;96857.41;;;33.68;30.04
9439;BME280;5176;42.622;25.386;2023-07-30T10:02:00;96865.34;;;33.75;30.32
9439;BME280;5176;42.622;25.386;2023-07-30T10:04:28;96859.47;;;33.83;29.85
9439;BME280;5176;42.622;25.386;2023-07-30T10:07:00;96858.53;;;33.94;30.39
9439;BME280;5176;42.622;25.386;2023-07-30T10:09:30;96852.03;;;33.95;28.80
9439;BME280;5176;42.622;25.386;2023-07-30T10:12:03;96851.63;;;33.86;28.97
9439;BME280;5176;42.622;25.386;2023-07-30T10:14:31;96829.13;;;33.64;30.43
9439;BME280;5176;42.622;25.386;2023-07-30T10:16:59;96845.13;;;33.87;29.39
9439;BME280;5176;42.622;25.386;2023-07-30T10:19:28;96836.25;;;33.97;30.67
9439;BME280;5176;42.622;25.386;2023-07-30T10:22:20;96831.03;;;34.18;30.47
9439;BME280;5176;42.622;25.386;2023-07-30T10:24:56;96826.22;;;34.30;29.30
9439;BME280;5176;42.622;25.386;2023-07-30T10:27:26;96827.06;;;34.30;29.71
9439;BME280;5176;42.622;25.386;2023-07-30T10:30:10;96824.53;;;34.51;30.22
9439;BME280;5176;42.622;25.386;2023-07-30T10:32:41;96834.50;;;34.72;28.69
9439;BME280;5176;42.622;25.386;2023-07-30T10:35:09;96827.97;;;34.73;29.67
9439;BME280;5176;42.622;25.386;2023-07-30T10:37:56;96828.03;;;34.78;29.46
9439;BME280;5176;42.622;25.386;2023-07-30T10:40:23;96822.34;;;34.85;29.84
9439;BME280;5176;42.622;25.386;2023-07-30T10:42:52;96819.59;;;34.80;28.34
9439;BME280;5176;42.622;25.386;2023-07-30T10:45:25;96819.78;;;34.68;29.34
9439;BME280;5176;42.622;25.386;2023-07-30T10:47:52;96822.25;;;34.75;28.43
9439;BME280;5176;42.622;25.386;2023-07-30T10:50:22;96819.03;;;34.83;28.18
9439;BME280;5176;42.622;25.386;2023-07-30T10:52:50;96807.38;;;34.87;27.63
9439;BME280;5176;42.622;25.386;2023-07-30T10:55:17;96814.25;;;34.95;28.14
9439;BME280;5176;42.622;25.386;2023-07-30T10:57:45;96812.50;;;34.84;27.28
9439;BME280;5176;42.622;25.386;2023-07-30T11:00:16;96814.81;;;34.60;28.25
9439;BME280;5176;42.622;25.386;2023-07-30T11:02:53;96803.19;;;34.37;28.76
9439;BME280;5176;42.622;25.386;2023-07-30T11:05:20;96803.81;;;34.12;28.26
9439;BME280;5176;42.622;25.386;2023-07-30T11:07:50;96799.16;;;33.86;30.45
9439;BME280;5176;42.622;25.386;2023-07-30T11:10:18;96801.97;;;33.69;28.58
9439;BME280;5176;42.622;25.386;2023-07-30T11:12:47;96795.00;;;33.78;28.90
9439;BME280;5176;42.622;25.386;2023-07-30T11:15:17;96799.16;;;33.86;29.49
9439;BME280;5176;42.622;25.386;2023-07-30T11:17:44;96794.44;;;33.98;29.08
9439;BME280;5176;42.622;25.386;2023-07-30T11:20:22;96788.09;;;34.20;29.62
9439;BME280;5176;42.622;25.386;2023-07-30T11:22:50;96785.63;;;34.18;28.43
9439;BME280;5176;42.622;25.386;2023-07-30T11:25:17;96774.38;;;33.82;28.31
9439;BME280;5176;42.622;25.386;2023-07-30T11:27:45;96780.75;;;33.66;28.52
9439;BME280;5176;42.622;25.386;2023-07-30T11:30:13;96780.22;;;33.42;29.12
9439;BME280;5176;42.622;25.386;2023-07-30T11:32:42;96725.56;;;32.95;29.29
9439;BME280;5176;42.622;25.386;2023-07-30T11:35:11;96785.38;;;33.22;30.14
9439;BME280;5176;42.622;25.386;2023-07-30T11:37:40;96779.13;;;33.21;29.69
9439;BME280;5176;42.622;25.386;2023-07-30T11:40:09;96775.94;;;33.29;30.44
9439;BME280;5176;42.622;25.386;2023-07-30T11:42:38;96770.69;;;33.40;29.30
9439;BME280;5176;42.622;25.386;2023-07-30T11:45:17;96761.88;;;33.54;29.40
9439;BME280;5176;42.622;25.386;2023-07-30T11:47:47;96762.59;;;33.72;29.46
9439;BME280;5176;42.622;25.386;2023-07-30T11:50:15;96767.38;;;33.86;29.74
9439;BME280;5176;42.622;25.386;2023-07-30T11:52:53;96759.28;;;33.92;29.74
9439;BME280;5176;42.622;25.386;2023-07-30T11:55:21;96756.59;;;33.97;29.39
9439;BME280;5176;42.622;25.386;2023-07-30T11:57:50;96744.09;;;33.96;29.61
9439;BME280;5176;42.622;25.386;2023-07-30T12:00:20;96754.41;;;34.26;30.11
9439;BME280;5176;42.622;25.386;2023-07-30T12:02:49;96749.34;;;34.39;30.08
9439;BME280;5176;42.622;25.386;2023-07-30T12:05:17;96745.88;;;34.49;30.25
9439;BME280;5176;42.622;25.386;2023-07-30T12:07:47;96743.69;;;34.46;28.34
9439;BME280;5176;42.622;25.386;2023-07-30T12:10:14;96747.13;;;34.36;28.56
9439;BME280;5176;42.622;25.386;2023-07-30T12:12:45;96737.00;;;34.27;28.73
9439;BME280;5176;42.622;25.386;2023-07-30T12:15:12;96735.00;;;34.12;28.48
9439;BME280;5176;42.622;25.386;2023-07-30T12:17:40;96733.00;;;34.02;29.52
9439;BME280;5176;42.622;25.386;2023-07-30T12:20:10;96715.41;;;33.83;28.76
9439;BME280;5176;42.622;25.386;2023-07-30T12:22:38;96705.94;;;33.58;30.27
9439;BME280;5176;42.622;25.386;2023-07-30T12:25:06;96728.44;;;33.54;30.16
9439;BME280;5176;42.622;25.386;2023-07-30T12:27:34;96714.28;;;33.30;29.90
9439;BME280;5176;42.622;25.386;2023-07-30T12:30:02;96722.41;;;33.25;30.79
9439;BME280;5176;42.622;25.386;2023-07-30T12:32:29;96717.59;;;33.32;30.82
9439;BME280;5176;42.622;25.386;2023-07-30T12:34:56;96703.84;;;33.39;30.89
9439;BME280;5176;42.622;25.386;2023-07-30T12:37:25;96715.13;;;33.52;30.16
9439;BME280;5176;42.622;25.386;2023-07-30T12:39:52;96712.56;;;33.41;30.42
9439;BME280;5176;42.622;25.386;2023-07-30T12:42:19;96711.63;;;33.35;30.26
9439;BME280;5176;42.622;25.386;2023-07-30T12:44:47;96713.28;;;33.36;29.87
9439;BME280;5176;42.622;25.386;2023-07-30T12:47:14;96701.25;;;33.27;30.42
9439;BME280;5176;42.622;25.386;2023-07-30T12:49:41;96701.44;;;33.20;29.98
9439;BME280;5176;42.622;25.386;2023-07-30T12:52:08;96689.19;;;33.18;31.31
9439;BME280;5176;42.622;25.386;2023-07-30T12:54:37;96694.88;;;33.16;32.20
9439;BME280;5176;42.622;25.386;2023-07-30T12:57:05;96690.13;;;33.28;31.44
9439;BME280;5176;42.622;25.386;2023-07-30T12:59:33;96690.72;;;33.35;30.79
9439;BME280;5176;42.622;25.386;2023-07-30T13:02:02;96685.72;;;33.49;31.26
9439;BME280;5176;42.622;25.386;2023-07-30T13:04:29;96676.34;;;33.62;33.36
9439;BME280;5176;42.622;25.386;2023-07-30T13:06:56;96677.00;;;33.74;30.56
9439;BME280;5176;42.622;25.386;2023-07-30T13:09:24;96678.69;;;33.80;30.24
9439;BME280;5176;42.622;25.386;2023-07-30T13:11:52;96667.06;;;33.90;30.76
9439;BME280;5176;42.622;25.386;2023-07-30T13:14:20;96669.84;;;33.95;29.98